sensor_id;sensor_type;location;lat;lon;timestamp;temperature;humidity
21184;DHT22;18176;49.502;11.754;2023-04-25T00:03:11;6.70;99.90
21184;DHT22;18176;49.502;11.754;2023-04-25T00:07:11;6.70;99.90
21184;DHT22;18176;49.502;11.754;2023-04-25T00:11:12;6.80;99.90
21184;DHT22;18176;49.502;11.754;2023-04-25T00:15:12;6.80;99.90
21184;DHT22;18176;49.502;11.754;2023-04-25T00:19:15;6.80;99.90
21184;DHT22;18176;49.502;11.754;2023-04-25T00:23:16;6.90;99.90
21184;DHT22;18176;49.502;11.754;2023-04-25T00:27:17;6.90;99.90
21184;DHT22;18176;49.502;11.754;2023-04-25T00:31:17;6.90;99.90
21184;DHT22;18176;49.502;11.754;2023-04-25T00:35:20;6.90;99.90
21184;DHT22;18176;49.502;11.754;2023-04-25T00:39:20;6.90;99.90
21184;DHT22;18176;49.502;11.754;2023-04-25T00:43:20;6.90;99.90
21184;DHT22;18176;49.502;11.754;2023-04-25T00:47:21;6.90;99.90
21184;DHT22;18176;49.502;11.754;2023-04-25T00:51:25;6.90;99.90
21184;DHT22;18176;49.502;11.754;2023-04-25T00:55:27;6.90;99.90
21184;DHT22;18176;49.502;11.754;2023-04-25T00:59:28;6.90;99.90
21184;DHT22;18176;49.502;11.754;2023-04-25T01:03:31;6.90;99.90
21184;DHT22;18176;49.502;11.754;2023-04-25T01:07:36;7.00;99.90
21184;DHT22;18176;49.502;11.754;2023-04-25T01:11:37;7.00;99.90
21184;DHT22;18176;49.502;11.754;2023-04-25T01:15:37;7.00;99.90
21184;DHT22;18176;49.502;11.754;2023-04-25T01:19:38;7.10;99.90
21184;DHT22;18176;49.502;11.754;2023-04-25T01:23:42;7.10;99.90
21184;DHT22;18176;49.502;11.754;2023-04-25T01:27:43;7.10;99.90
21184;DHT22;18176;49.502;11.754;2023-04-25T01:31:44;7.10;99.90
21184;DHT22;18176;49.502;11.754;2023-04-25T01:35:45;7.10;99.90
21184;DHT22;18176;49.502;11.754;2023-04-25T01:39:51;7.10;99.90
21184;DHT22;18176;49.502;11.754;2023-04-25T01:43:52;7.10;99.90
21184;DHT22;18176;49.502;11.754;2023-04-25T01:47:52;7.10;99.90
21184;DHT22;18176;49.502;11.754;2023-04-25T01:51:56;7.10;99.90
21184;DHT22;18176;49.502;11.754;2023-04-25T01:55:59;7.00;99.90
21184;DHT22;18176;49.502;11.754;2023-04-25T02:00:05;7.00;99.90
21184;DHT22;18176;49.502;11.754;2023-04-25T02:04:09;7.00;99.90
21184;DHT22;18176;49.502;11.754;2023-04-25T02:08:10;6.90;99.90
21184;DHT22;18176;49.502;11.754;2023-04-25T02:12:13;6.90;99.90
21184;DHT22;18176;49.502;11.754;2023-04-25T02:16:29;6.80;99.90
21184;DHT22;18176;49.502;11.754;2023-04-25T02:20:31;6.80;99.90
21184;DHT22;18176;49.502;11.754;2023-04-25T02:24:31;6.80;99.90
21184;DHT22;18176;49.502;11.754;2023-04-25T02:28:35;6.70;99.90
21184;DHT22;18176;49.502;11.754;2023-04-25T02:32:35;6.70;99.90
21184;DHT22;18176;49.502;11.754;2023-04-25T02:36:36;6.70;99.90
21184;DHT22;18176;49.502;11.754;2023-04-25T02:40:36;6.60;99.90
21184;DHT22;18176;49.502;11.754;2023-04-25T02:44:40;6.60;99.90
21184;DHT22;18176;49.502;11.754;2023-04-25T02:48:40;6.60;99.90
21184;DHT22;18176;49.502;11.754;2023-04-25T02:52:40;6.60;99.90
21184;DHT22;18176;49.502;11.754;2023-04-25T02:56:45;6.60;99.90
21184;DHT22;18176;49.502;11.754;2023-04-25T03:00:54;6.60;99.90
21184;DHT22;18176;49.502;11.754;2023-04-25T03:04:54;6.60;99.90
21184;DHT22;18176;49.502;11.754;2023-04-25T03:08:56;6.60;99.90
21184;DHT22;18176;49.502;11.754;2023-04-25T03:12:56;6.50;99.90
21184;DHT22;18176;49.502;11.754;2023-04-25T03:16:59;6.40;99.90
21184;DHT22;18176;49.502;11.754;2023-04-25T03:21:00;6.40;99.90
21184;DHT22;18176;49.502;11.754;2023-04-25T03:25:00;6.30;99.90
21184;DHT22;18176;49.502;11.754;2023-04-25T03:29:01;6.20;99.90
21184;DHT22;18176;49.502;11.754;2023-04-25T03:33:04;6.20;99.90
21184;DHT22;18176;49.502;11.754;2023-04-25T03:37:04;6.10;99.90
21184;DHT22;18176;49.502;11.754;2023-04-25T03:41:07;6.00;99.90
21184;DHT22;18176;49.502;11.754;2023-04-25T03:45:12;6.00;99.90
21184;DHT22;18176;49.502;11.754;2023-04-25T03:49:15;5.90;99.90
21184;DHT22;18176;49.502;11.754;2023-04-25T03:53:27;5.90;99.90
21184;DHT22;18176;49.502;11.754;2023-04-25T03:57:46;5.90;99.90
21184;DHT22;18176;49.502;11.754;2023-04-25T04:01:46;6.00;99.90
21184;DHT22;18176;49.502;11.754;2023-04-25T04:05:49;6.00;99.90
21184;DHT22;18176;49.502;11.754;2023-04-25T04:09:50;6.10;99.90
21184;DHT22;18176;49.502;11.754;2023-04-25T04:13:57;6.10;99.90
21184;DHT22;18176;49.502;11.754;2023-04-25T04:17:57;6.10;99.90
21184;DHT22;18176;49.502;11.754;2023-04-25T04:22:03;6.10;99.90
21184;DHT22;18176;49.502;11.754;2023-04-25T04:26:04;6.20;99.90
21184;DHT22;18176;49.502;11.754;2023-04-25T04:30:27;6.30;99.90
21184;DHT22;18176;49.502;11.754;2023-04-25T04:34:30;6.40;99.90
21184;DHT22;18176;49.502;11.754;2023-04-25T04:38:33;6.50;99.90
21184;DHT22;18176;49.502;11.754;2023-04-25T04:42:39;6.60;99.90
21184;DHT22;18176;49.502;11.754;2023-04-25T04:47:04;6.60;99.90
21184;DHT22;18176;49.502;11.754;2023-04-25T04:51:25;6.80;99.90
21184;DHT22;18176;49.502;11.754;2023-04-25T04:55:37;6.90;99.90
21184;DHT22;18176;49.502;11.754;2023-04-25T04:59:58;6.90;99.90
21184;DHT22;18176;49.502;11.754;2023-04-25T05:04:25;7.00;99.90
21184;DHT22;18176;49.502;11.754;2023-04-25T05:08:46;7.10;99.90
21184;DHT22;18176;49.502;11.754;2023-04-25T05:13:09;7.10;99.90
21184;DHT22;18176;49.502;11.754;2023-04-25T05:17:18;7.10;99.90
21184;DHT22;18176;49.502;11.754;2023-04-25T05:21:37;7.10;99.90
21184;DHT22;18176;49.502;11.754;2023-04-25T05:25:45;7.10;99.90
21184;DHT22;18176;49.502;11.754;2023-04-25T05:30:10;7.10;99.90
21184;DHT22;18176;49.502;11.754;2023-04-25T05:34:26;7.00;99.90
21184;DHT22;18176;49.502;11.754;2023-04-25T05:38:33;7.10;99.90
21184;DHT22;18176;49.502;11.754;2023-04-25T05:42:56;7.10;99.90
21184;DHT22;18176;49.502;11.754;2023-04-25T05:47:15;7.10;99.90
21184;DHT22;18176;49.502;11.754;2023-04-25T05:51:35;7.10;99.90
21184;DHT22;18176;49.502;11.754;2023-04-25T05:55:56;7.10;99.90
21184;DHT22;18176;49.502;11.754;2023-04-25T05:59:58;7.10;99.90
21184;DHT22;18176;49.502;11.754;2023-04-25T06:04:27;7.00;99.90
21184;DHT22;18176;49.502;11.754;2023-04-25T06:08:28;7.20;99.90
21184;DHT22;18176;49.502;11.754;2023-04-25T06:12:28;7.40;99.90
21184;DHT22;18176;49.502;11.754;2023-04-25T06:16:28;7.40;99.90
21184;DHT22;18176;49.502;11.754;2023-04-25T06:20:32;7.50;99.90
21184;DHT22;18176;49.502;11.754;2023-04-25T06:24:32;7.50;99.90
21184;DHT22;18176;49.502;11.754;2023-04-25T06:28:34;7.50;99.90
21184;DHT22;18176;49.502;11.754;2023-04-25T06:32:34;7.30;99.90
21184;DHT22;18176;49.502;11.754;2023-04-25T06:36:37;7.30;99.90
21184;DHT22;18176;49.502;11.754;2023-04-25T06:40:41;7.30;99.90
21184;DHT22;18176;49.502;11.754;2023-04-25T06:44:41;7.30;99.90
21184;DHT22;18176;49.502;11.754;2023-04-25T06:48:42;7.20;99.90
21184;DHT22;18176;49.502;11.754;2023-04-25T06:52:45;7.20;99.90
21184;DHT22;18176;49.502;11.754;2023-04-25T06:56:47;7.10;99.90
21184;DHT22;18176;49.502;11.754;2023-04-25T07:00:47;7.00;99.90
21184;DHT22;18176;49.502;11.754;2023-04-25T07:04:50;7.00;99.90
21184;DHT22;18176;49.502;11.754;2023-04-25T07:08:55;7.10;99.90
21184;DHT22;18176;49.502;11.754;2023-04-25T07:12:55;7.20;99.90
21184;DHT22;18176;49.502;11.754;2023-04-25T07:16:55;7.30;99.90
21184;DHT22;18176;49.502;11.754;2023-04-25T07:20:58;7.30;99.90
21184;DHT22;18176;49.502;11.754;2023-04-25T07:25:03;7.40;99.90
21184;DHT22;18176;49.502;11.754;2023-04-25T07:29:05;7.50;99.90
21184;DHT22;18176;49.502;11.754;2023-04-25T07:33:05;7.60;99.90
21184;DHT22;18176;49.502;11.754;2023-04-25T07:37:06;7.40;99.90
21184;DHT22;18176;49.502;11.754;2023-04-25T07:41:19;7.20;99.90
21184;DHT22;18176;49.502;11.754;2023-04-25T07:45:19;7.10;99.90
21184;DHT22;18176;49.502;11.754;2023-04-25T07:49:21;6.90;99.90
21184;DHT22;18176;49.502;11.754;2023-04-25T07:53:21;6.90;99.90
21184;DHT22;18176;49.502;11.754;2023-04-25T07:57:30;6.80;99.90
21184;DHT22;18176;49.502;11.754;2023-04-25T08:01:31;6.70;99.90
21184;DHT22;18176;49.502;11.754;2023-04-25T08:05:35;6.60;99.90
21184;DHT22;18176;49.502;11.754;2023-04-25T08:09:36;6.80;99.90
21184;DHT22;18176;49.502;11.754;2023-04-25T08:13:45;6.60;99.90
21184;DHT22;18176;49.502;11.754;2023-04-25T08:17:46;6.60;99.90
21184;DHT22;18176;49.502;11.754;2023-04-25T08:21:46;6.60;99.90
21184;DHT22;18176;49.502;11.754;2023-04-25T08:25:55;6.50;99.90
21184;DHT22;18176;49.502;11.754;2023-04-25T08:30:01;6.70;99.90
21184;DHT22;18176;49.502;11.754;2023-04-25T08:34:02;6.90;99.90
21184;DHT22;18176;49.502;11.754;2023-04-25T08:38:22;7.10;99.90
21184;DHT22;18176;49.502;11.754;2023-04-25T08:42:24;7.20;99.90
21184;DHT22;18176;49.502;11.754;2023-04-25T08:46:30;6.90;99.90
21184;DHT22;18176;49.502;11.754;2023-04-25T08:50:50;6.70;99.90
21184;DHT22;18176;49.502;11.754;2023-04-25T08:54:53;6.70;99.90
21184;DHT22;18176;49.502;11.754;2023-04-25T08:58:57;6.50;99.90
21184;DHT22;18176;49.502;11.754;2023-04-25T09:03:01;6.30;99.90
21184;DHT22;18176;49.502;11.754;2023-04-25T09:07:03;6.10;99.90
21184;DHT22;18176;49.502;11.754;2023-04-25T09:11:04;6.10;99.90
21184;DHT22;18176;49.502;11.754;2023-04-25T09:15:06;6.20;99.90
21184;DHT22;18176;49.502;11.754;2023-04-25T09:19:35;6.30;99.90
21184;DHT22;18176;49.502;11.754;2023-04-25T09:23:52;6.70;99.90
21184;DHT22;18176;49.502;11.754;2023-04-25T09:27:53;7.10;99.90
21184;DHT22;18176;49.502;11.754;2023-04-25T09:32:15;7.40;99.90
21184;DHT22;18176;49.502;11.754;2023-04-25T09:36:26;8.00;99.90
21184;DHT22;18176;49.502;11.754;2023-04-25T09:40:48;8.30;99.90
21184;DHT22;18176;49.502;11.754;2023-04-25T09:45:12;9.20;99.90
21184;DHT22;18176;49.502;11.754;2023-04-25T09:49:14;11.10;99.90
21184;DHT22;18176;49.502;11.754;2023-04-25T09:53:26;12.10;99.90
21184;DHT22;18176;49.502;11.754;2023-04-25T09:58:04;11.80;99.90
21184;DHT22;18176;49.502;11.754;2023-04-25T10:02:06;11.30;99.90
21184;DHT22;18176;49.502;11.754;2023-04-25T10:06:11;11.50;99.90
21184;DHT22;18176;49.502;11.754;2023-04-25T10:10:17;11.40;99.90
21184;DHT22;18176;49.502;11.754;2023-04-25T10:14:23;12.30;99.90
21184;DHT22;18176;49.502;11.754;2023-04-25T10:18:24;12.50;99.90
21184;DHT22;18176;49.502;11.754;2023-04-25T10:22:29;12.00;99.90
21184;DHT22;18176;49.502;11.754;2023-04-25T10:26:35;12.00;99.90
21184;DHT22;18176;49.502;11.754;2023-04-25T10:30:35;12.60;99.90
21184;DHT22;18176;49.502;11.754;2023-04-25T10:34:40;13.20;99.90
21184;DHT22;18176;49.502;11.754;2023-04-25T10:38:45;13.10;99.90
21184;DHT22;18176;49.502;11.754;2023-04-25T10:42:51;12.80;99.90
21184;DHT22;18176;49.502;11.754;2023-04-25T10:46:52;12.30;99.90
21184;DHT22;18176;49.502;11.754;2023-04-25T10:51:07;11.50;99.90
21184;DHT22;18176;49.502;11.754;2023-04-25T10:55:08;11.10;99.90
21184;DHT22;18176;49.502;11.754;2023-04-25T10:59:13;11.00;99.90
21184;DHT22;18176;49.502;11.754;2023-04-25T11:03:16;10.80;99.90
21184;DHT22;18176;49.502;11.754;2023-04-25T11:07:22;10.60;99.90
21184;DHT22;18176;49.502;11.754;2023-04-25T11:11:29;10.70;99.90
21184;DHT22;18176;49.502;11.754;2023-04-25T11:15:32;11.70;99.90
21184;DHT22;18176;49.502;11.754;2023-04-25T11:19:33;12.90;99.90
21184;DHT22;18176;49.502;11.754;2023-04-25T11:23:34;12.80;99.90
21184;DHT22;18176;49.502;11.754;2023-04-25T11:27:37;12.30;99.90
21184;DHT22;18176;49.502;11.754;2023-04-25T11:31:44;11.60;99.90
21184;DHT22;18176;49.502;11.754;2023-04-25T11:35:44;13.40;99.90
21184;DHT22;18176;49.502;11.754;2023-04-25T11:39:45;14.60;99.90
21184;DHT22;18176;49.502;11.754;2023-04-25T11:43:46;14.60;99.90
21184;DHT22;18176;49.502;11.754;2023-04-25T11:47:52;13.80;99.90
21184;DHT22;18176;49.502;11.754;2023-04-25T11:51:52;13.30;99.90
21184;DHT22;18176;49.502;11.754;2023-04-25T11:55:53;13.10;99.90
21184;DHT22;18176;49.502;11.754;2023-04-25T11:59:53;12.70;99.90
21184;DHT22;18176;49.502;11.754;2023-04-25T12:03:56;12.50;99.90
21184;DHT22;18176;49.502;11.754;2023-04-25T12:07:56;12.30;99.90
21184;DHT22;18176;49.502;11.754;2023-04-25T12:11:58;12.00;99.90
21184;DHT22;18176;49.502;11.754;2023-04-25T12:16:03;11.80;99.90
21184;DHT22;18176;49.502;11.754;2023-04-25T12:20:10;11.70;99.90
21184;DHT22;18176;49.502;11.754;2023-04-25T12:24:13;12.00;99.90
21184;DHT22;18176;49.502;11.754;2023-04-25T12:28:18;12.50;99.90
21184;DHT22;18176;49.502;11.754;2023-04-25T12:32:20;12.70;99.90
21184;DHT22;18176;49.502;11.754;2023-04-25T12:36:24;12.30;99.90
21184;DHT22;18176;49.502;11.754;2023-04-25T12:40:25;11.70;99.90
21184;DHT22;18176;49.502;11.754;2023-04-25T12:44:25;11.20;99.90
21184;DHT22;18176;49.502;11.754;2023-04-25T12:48:25;11.10;99.90
21184;DHT22;18176;49.502;11.754;2023-04-25T12:52:28;11.90;99.90
21184;DHT22;18176;49.502;11.754;2023-04-25T12:56:28;12.90;99.90
21184;DHT22;18176;49.502;11.754;2023-04-25T13:00:29;14.10;99.90
21184;DHT22;18176;49.502;11.754;2023-04-25T13:04:29;14.40;99.90
21184;DHT22;18176;49.502;11.754;2023-04-25T13:08:32;13.90;99.90
21184;DHT22;18176;49.502;11.754;2023-04-25T13:12:33;13.90;99.90
21184;DHT22;18176;49.502;11.754;2023-04-25T13:16:34;14.00;99.90
21184;DHT22;18176;49.502;11.754;2023-04-25T13:20:34;13.50;99.90
21184;DHT22;18176;49.502;11.754;2023-04-25T13:24:37;13.00;99.90
21184;DHT22;18176;49.502;11.754;2023-04-25T13:28:37;12.60;99.90
21184;DHT22;18176;49.502;11.754;2023-04-25T13:32:40;12.50;99.90
21184;DHT22;18176;49.502;11.754;2023-04-25T13:36:40;13.10;99.90
21184;DHT22;18176;49.502;11.754;2023-04-25T13:40:43;13.00;99.90
21184;DHT22;18176;49.502;11.754;2023-04-25T13:44:43;12.70;99.90
21184;DHT22;18176;49.502;11.754;2023-04-25T13:48:43;13.20;99.90
21184;DHT22;18176;49.502;11.754;2023-04-25T13:52:45;13.60;99.90
21184;DHT22;18176;49.502;11.754;2023-04-25T13:56:49;13.30;99.90
21184;DHT22;18176;49.502;11.754;2023-04-25T14:00:52;12.60;99.90
21184;DHT22;18176;49.502;11.754;2023-04-25T14:04:52;12.20;99.90
21184;DHT22;18176;49.502;11.754;2023-04-25T14:08:52;11.90;99.90
21184;DHT22;18176;49.502;11.754;2023-04-25T14:12:55;11.90;99.90
21184;DHT22;18176;49.502;11.754;2023-04-25T14:16:56;12.10;99.90
21184;DHT22;18176;49.502;11.754;2023-04-25T14:20:56;12.20;99.90
21184;DHT22;18176;49.502;11.754;2023-04-25T14:24:57;11.90;99.90
21184;DHT22;18176;49.502;11.754;2023-04-25T14:29:00;11.80;99.90
21184;DHT22;18176;49.502;11.754;2023-04-25T14:33:00;11.90;99.90
21184;DHT22;18176;49.502;11.754;2023-04-25T14:37:01;11.70;99.90
21184;DHT22;18176;49.502;11.754;2023-04-25T14:41:01;11.60;99.90
21184;DHT22;18176;49.502;11.754;2023-04-25T14:45:06;11.60;99.90
21184;DHT22;18176;49.502;11.754;2023-04-25T14:49:08;11.60;99.90
21184;DHT22;18176;49.502;11.754;2023-04-25T14:53:08;11.50;99.90
21184;DHT22;18176;49.502;11.754;2023-04-25T14:57:09;11.60;99.90
21184;DHT22;18176;49.502;11.754;2023-04-25T15:01:13;11.50;99.90
21184;DHT22;18176;49.502;11.754;2023-04-25T15:05:14;11.30;99.90
21184;DHT22;18176;49.502;11.754;2023-04-25T15:09:14;11.10;99.90
21184;DHT22;18176;49.502;11.754;2023-04-25T15:13:15;11.10;99.90
21184;DHT22;18176;49.502;11.754;2023-04-25T15:17:20;11.00;99.90
21184;DHT22;18176;49.502;11.754;2023-04-25T15:21:20;10.90;99.90
21184;DHT22;18176;49.502;11.754;2023-04-25T15:25:20;10.60;99.90
21184;DHT22;18176;49.502;11.754;2023-04-25T15:29:20;10.50;99.90
21184;DHT22;18176;49.502;11.754;2023-04-25T15:33:24;10.50;99.90
21184;DHT22;18176;49.502;11.754;2023-04-25T15:37:24;10.30;99.90
21184;DHT22;18176;49.502;11.754;2023-04-25T15:41:24;10.20;99.90
21184;DHT22;18176;49.502;11.754;2023-04-25T15:45:24;10.10;99.90
21184;DHT22;18176;49.502;11.754;2023-04-25T15:49:28;10.00;99.90
21184;DHT22;18176;49.502;11.754;2023-04-25T15:53:28;10.00;99.90
21184;DHT22;18176;49.502;11.754;2023-04-25T15:57:29;9.90;99.90
21184;DHT22;18176;49.502;11.754;2023-04-25T16:01:29;9.90;99.90
21184;DHT22;18176;49.502;11.754;2023-04-25T16:05:33;9.90;99.90
21184;DHT22;18176;49.502;11.754;2023-04-25T16:09:33;9.90;99.90
21184;DHT22;18176;49.502;11.754;2023-04-25T16:13:35;9.80;99.90
21184;DHT22;18176;49.502;11.754;2023-04-25T16:17:35;9.80;99.90
21184;DHT22;18176;49.502;11.754;2023-04-25T16:21:39;9.70;99.90
21184;DHT22;18176;49.502;11.754;2023-04-25T16:25:39;9.60;99.90
21184;DHT22;18176;49.502;11.754;2023-04-25T16:29:40;9.50;99.90
21184;DHT22;18176;49.502;11.754;2023-04-25T16:33:44;9.40;99.90
21184;DHT22;18176;49.502;11.754;2023-04-25T16:37:47;9.30;99.90
21184;DHT22;18176;49.502;11.754;2023-04-25T16:41:47;9.40;99.90
21184;DHT22;18176;49.502;11.754;2023-04-25T16:45:48;9.40;99.90
21184;DHT22;18176;49.502;11.754;2023-04-25T16:49:48;9.40;99.90
21184;DHT22;18176;49.502;11.754;2023-04-25T16:53:51;9.30;99.90
21184;DHT22;18176;49.502;11.754;2023-04-25T16:57:52;9.30;99.90
21184;DHT22;18176;49.502;11.754;2023-04-25T17:01:52;9.10;99.90
21184;DHT22;18176;49.502;11.754;2023-04-25T17:05:53;9.20;99.90
21184;DHT22;18176;49.502;11.754;2023-04-25T17:09:59;9.30;99.90
21184;DHT22;18176;49.502;11.754;2023-04-25T17:14:00;9.50;99.90
21184;DHT22;18176;49.502;11.754;2023-04-25T17:18:00;9.50;99.90
21184;DHT22;18176;49.502;11.754;2023-04-25T17:22:00;9.50;99.90
21184;DHT22;18176;49.502;11.754;2023-04-25T17:26:03;9.70;99.90
21184;DHT22;18176;49.502;11.754;2023-04-25T17:30:04;9.60;99.90
21184;DHT22;18176;49.502;11.754;2023-04-25T17:34:05;9.40;99.90
21184;DHT22;18176;49.502;11.754;2023-04-25T17:38:07;9.10;99.90
21184;DHT22;18176;49.502;11.754;2023-04-25T17:42:11;8.90;99.90
21184;DHT22;18176;49.502;11.754;2023-04-25T17:46:11;8.80;99.90
21184;DHT22;18176;49.502;11.754;2023-04-25T17:50:11;8.70;99.90
21184;DHT22;18176;49.502;11.754;2023-04-25T17:54:12;8.70;99.90
21184;DHT22;18176;49.502;11.754;2023-04-25T17:58:16;8.60;99.90
21184;DHT22;18176;49.502;11.754;2023-04-25T18:02:17;8.50;99.90
21184;DHT22;18176;49.502;11.754;2023-04-25T18:06:18;8.40;99.90
21184;DHT22;18176;49.502;11.754;2023-04-25T18:10:18;8.40;99.90
21184;DHT22;18176;49.502;11.754;2023-04-25T18:14:21;8.20;99.90
21184;DHT22;18176;49.502;11.754;2023-04-25T18:18:21;8.30;99.90
21184;DHT22;18176;49.502;11.754;2023-04-25T18:22:29;8.30;99.90
21184;DHT22;18176;49.502;11.754;2023-04-25T18:26:29;8.20;99.90
21184;DHT22;18176;49.502;11.754;2023-04-25T18:30:32;8.20;99.90
21184;DHT22;18176;49.502;11.754;2023-04-25T18:34:34;8.20;99.90
21184;DHT22;18176;49.502;11.754;2023-04-25T18:38:37;8.10;99.90
21184;DHT22;18176;49.502;11.754;2023-04-25T18:42:37;8.10;99.90
21184;DHT22;18176;49.502;11.754;2023-04-25T18:46:41;8.00;99.90
21184;DHT22;18176;49.502;11.754;2023-04-25T18:50:43;8.00;99.90
21184;DHT22;18176;49.502;11.754;2023-04-25T18:54:43;7.90;99.90
21184;DHT22;18176;49.502;11.754;2023-04-25T18:58:44;7.90;99.90
21184;DHT22;18176;49.502;11.754;2023-04-25T19:07:27;7.90;99.90
21184;DHT22;18176;49.502;11.754;2023-04-25T19:11:28;7.80;99.90
21184;DHT22;18176;49.502;11.754;2023-04-25T19:15:28;7.80;99.90
21184;DHT22;18176;49.502;11.754;2023-04-25T19:19:29;7.70;99.90
21184;DHT22;18176;49.502;11.754;2023-04-25T19:23:32;7.70;99.90
21184;DHT22;18176;49.502;11.754;2023-04-25T19:27:33;7.60;99.90
21184;DHT22;18176;49.502;11.754;2023-04-25T19:31:34;7.50;99.90
21184;DHT22;18176;49.502;11.754;2023-04-25T19:35:35;7.40;99.90
21184;DHT22;18176;49.502;11.754;2023-04-25T19:39:38;7.40;99.90
21184;DHT22;18176;49.502;11.754;2023-04-25T19:43:39;7.30;99.90
21184;DHT22;18176;49.502;11.754;2023-04-25T19:47:40;7.20;99.90
21184;DHT22;18176;49.502;11.754;2023-04-25T19:51:41;7.10;99.90
21184;DHT22;18176;49.502;11.754;2023-04-25T19:55:44;6.90;99.90
21184;DHT22;18176;49.502;11.754;2023-04-25T19:59:45;6.80;99.90
21184;DHT22;18176;49.502;11.754;2023-04-25T20:03:45;6.70;99.90
21184;DHT22;18176;49.502;11.754;2023-04-25T20:07:48;6.70;99.90
21184;DHT22;18176;49.502;11.754;2023-04-25T20:11:51;6.70;99.90
21184;DHT22;18176;49.502;11.754;2023-04-25T20:15:52;6.70;99.90
21184;DHT22;18176;49.502;11.754;2023-04-25T20:19:52;6.70;99.90
21184;DHT22;18176;49.502;11.754;2023-04-25T20:23:52;6.70;99.90
21184;DHT22;18176;49.502;11.754;2023-04-25T20:27:56;6.70;99.90
21184;DHT22;18176;49.502;11.754;2023-04-25T20:31:57;6.70;99.90
21184;DHT22;18176;49.502;11.754;2023-04-25T20:35:59;6.60;99.90
21184;DHT22;18176;49.502;11.754;2023-04-25T20:40:00;6.70;99.90
21184;DHT22;18176;49.502;11.754;2023-04-25T20:44:05;6.70;99.90
21184;DHT22;18176;49.502;11.754;2023-04-25T20:48:05;6.70;99.90
21184;DHT22;18176;49.502;11.754;2023-04-25T20:52:06;6.80;99.90
21184;DHT22;18176;49.502;11.754;2023-04-25T20:56:07;6.80;99.90
21184;DHT22;18176;49.502;11.754;2023-04-25T21:00:12;6.90;99.90
21184;DHT22;18176;49.502;11.754;2023-04-25T21:04:22;6.90;99.90
21184;DHT22;18176;49.502;11.754;2023-04-25T21:08:23;6.70;99.90
21184;DHT22;18176;49.502;11.754;2023-04-25T21:12:23;6.60;99.90
21184;DHT22;18176;49.502;11.754;2023-04-25T21:16:26;6.60;99.90
21184;DHT22;18176;49.502;11.754;2023-04-25T21:20:31;6.50;99.90
21184;DHT22;18176;49.502;11.754;2023-04-25T21:24:32;6.40;99.90
21184;DHT22;18176;49.502;11.754;2023-04-25T21:28:32;6.20;99.90
21184;DHT22;18176;49.502;11.754;2023-04-25T21:32:35;6.10;99.90
21184;DHT22;18176;49.502;11.754;2023-04-25T21:36:36;5.90;99.90
21184;DHT22;18176;49.502;11.754;2023-04-25T21:40:39;5.80;99.90
21184;DHT22;18176;49.502;11.754;2023-04-25T21:44:40;5.80;99.90
21184;DHT22;18176;49.502;11.754;2023-04-25T21:48:43;5.80;99.90
21184;DHT22;18176;49.502;11.754;2023-04-25T21:52:44;5.90;99.90
21184;DHT22;18176;49.502;11.754;2023-04-25T21:56:44;5.90;99.90
21184;DHT22;18176;49.502;11.754;2023-04-25T22:00:44;5.90;99.90
21184;DHT22;18176;49.502;11.754;2023-04-25T22:04:47;6.00;99.90
21184;DHT22;18176;49.502;11.754;2023-04-25T22:08:48;6.00;99.90
21184;DHT22;18176;49.502;11.754;2023-04-25T22:12:49;6.10;99.90
21184;DHT22;18176;49.502;11.754;2023-04-25T22:16:50;6.10;99.90
21184;DHT22;18176;49.502;11.754;2023-04-25T22:20:53;6.00;99.90
21184;DHT22;18176;49.502;11.754;2023-04-25T22:24:53;5.90;99.90
21184;DHT22;18176;49.502;11.754;2023-04-25T22:28:53;5.70;99.90
21184;DHT22;18176;49.502;11.754;2023-04-25T22:32:53;5.70;99.90
21184;DHT22;18176;49.502;11.754;2023-04-25T22:36:56;5.50;99.90
21184;DHT22;18176;49.502;11.754;2023-04-25T22:40:57;5.40;99.90
21184;DHT22;18176;49.502;11.754;2023-04-25T22:44:58;5.40;99.90
21184;DHT22;18176;49.502;11.754;2023-04-25T22:48:59;5.30;99.90
21184;DHT22;18176;49.502;11.754;2023-04-25T22:53:01;5.30;99.90
21184;DHT22;18176;49.502;11.754;2023-04-25T22:57:05;5.30;99.90
21184;DHT22;18176;49.502;11.754;2023-04-25T23:01:06;5.40;99.90
21184;DHT22;18176;49.502;11.754;2023-04-25T23:05:08;5.40;99.90
21184;DHT22;18176;49.502;11.754;2023-04-25T23:09:11;5.40;99.90
21184;DHT22;18176;49.502;11.754;2023-04-25T23:13:11;5.30;99.90
21184;DHT22;18176;49.502;11.754;2023-04-25T23:17:12;5.20;99.90
21184;DHT22;18176;49.502;11.754;2023-04-25T23:21:13;5.00;99.90
21184;DHT22;18176;49.502;11.754;2023-04-25T23:25:15;4.90;99.90
21184;DHT22;18176;49.502;11.754;2023-04-25T23:29:16;4.60;99.90
21184;DHT22;18176;49.502;11.754;2023-04-25T23:33:16;4.40;99.90
21184;DHT22;18176;49.502;11.754;2023-04-25T23:37:17;4.20;99.90
21184;DHT22;18176;49.502;11.754;2023-04-25T23:41:20;4.00;99.90
21184;DHT22;18176;49.502;11.754;2023-04-25T23:45:21;3.90;99.90
21184;DHT22;18176;49.502;11.754;2023-04-25T23:49:21;3.80;99.90
21184;DHT22;18176;49.502;11.754;2023-04-25T23:53:21;3.70;99.90
21184;DHT22;18176;49.502;11.754;2023-04-25T23:57:25;3.70;99.90
